createdAt,value
2019-02-11T00:00:13.508Z,1.53
2019-02-11T00:02:41.915Z,1.60
2019-02-11T00:05:10.365Z,1.30
2019-02-11T00:07:38.780Z,1.40
2019-02-11T00:10:07.392Z,2.13
2019-02-11T00:12:35.813Z,1.30
2019-02-11T00:15:04.900Z,1.57
2019-02-11T00:17:33.317Z,1.40
2019-02-11T00:20:01.764Z,1.50
2019-02-11T00:22:30.181Z,1.50
2019-02-11T00:24:58.698Z,1.30
2019-02-11T00:27:27.117Z,1.50
2019-02-11T00:29:55.572Z,1.40
2019-02-11T00:32:23.993Z,1.30
2019-02-11T00:34:52.411Z,1.37
2019-02-11T00:37:20.897Z,1.20
2019-02-11T00:39:49.320Z,1.70
2019-02-11T00:42:17.757Z,1.57
2019-02-11T00:44:49.470Z,1.53
2019-02-11T00:47:17.915Z,1.07
2019-02-11T00:49:46.329Z,2.17
2019-02-11T00:52:14.792Z,1.20
2019-02-11T00:54:43.197Z,1.10
2019-02-11T00:57:11.639Z,2.37
2019-02-11T00:59:40.047Z,2.03
2019-02-11T01:02:08.712Z,2.50
2019-02-11T01:04:37.113Z,1.87
2019-02-11T01:07:05.568Z,2.03
2019-02-11T01:09:33.973Z,1.37
2019-02-11T01:12:02.426Z,1.27
2019-02-11T01:14:30.837Z,1.67
2019-02-11T01:16:59.277Z,1.00
2019-02-11T01:19:27.703Z,1.30
2019-02-11T01:21:56.144Z,1.27
2019-02-11T01:24:24.555Z,2.43
2019-02-11T01:26:52.958Z,1.60
2019-02-11T01:29:21.401Z,1.43
2019-02-11T01:31:49.893Z,1.40
2019-02-11T01:34:18.330Z,1.80
2019-02-11T01:36:46.803Z,2.30
2019-02-11T01:39:15.255Z,1.83
2019-02-11T01:41:43.669Z,2.33
2019-02-11T01:44:12.111Z,2.23
2019-02-11T01:46:40.528Z,3.10
2019-02-11T01:49:08.961Z,4.17
2019-02-11T01:51:37.401Z,3.13
2019-02-11T01:54:05.989Z,6.43
2019-02-11T01:56:34.507Z,4.53
2019-02-11T01:59:02.953Z,5.67
2019-02-11T02:01:31.372Z,3.10
2019-02-11T02:03:59.807Z,4.13
2019-02-11T02:06:28.238Z,3.70
2019-02-11T02:08:56.710Z,4.47
2019-02-11T02:11:25.122Z,5.20
2019-02-11T02:13:53.589Z,3.77
2019-02-11T02:16:21.981Z,5.83
2019-02-11T02:18:50.438Z,6.83
2019-02-11T02:21:18.843Z,5.60
2019-02-11T02:23:47.257Z,6.10
2019-02-11T02:26:15.701Z,6.20
2019-02-11T02:28:44.144Z,4.33
2019-02-11T02:31:12.579Z,7.27
2019-02-11T02:33:40.991Z,3.90
2019-02-11T02:36:09.525Z,4.77
2019-02-11T02:38:37.925Z,3.80
2019-02-11T02:41:06.374Z,6.20
2019-02-11T02:43:34.780Z,5.00
2019-02-11T02:46:03.230Z,3.50
2019-02-11T02:48:31.648Z,5.00
2019-02-11T02:51:00.229Z,5.00
2019-02-11T02:53:28.643Z,5.57
2019-02-11T02:55:57.081Z,2.73
2019-02-11T02:58:25.505Z,4.67
2019-02-11T03:00:53.964Z,3.13
2019-02-11T03:03:22.370Z,3.57
2019-02-11T03:05:52.902Z,6.00
2019-02-11T03:08:24.008Z,6.73
2019-02-11T03:10:52.522Z,6.97
2019-02-11T03:13:20.934Z,6.63
2019-02-11T03:15:49.418Z,6.30
2019-02-11T03:18:17.873Z,8.20
2019-02-11T03:20:46.287Z,7.93
2019-02-11T03:23:14.799Z,9.67
2019-02-11T03:25:43.219Z,13.57
2019-02-11T03:28:11.698Z,9.77
2019-02-11T03:30:40.114Z,8.57
2019-02-11T03:33:08.817Z,15.33
2019-02-11T03:35:37.242Z,16.40
2019-02-11T03:38:05.677Z,12.07
2019-02-11T03:40:34.263Z,12.97
2019-02-11T03:43:02.869Z,14.40
2019-02-11T03:45:33.931Z,14.37
2019-02-11T03:48:02.357Z,13.13
2019-02-11T03:50:30.760Z,12.17
2019-02-11T03:52:59.438Z,9.77
2019-02-11T03:55:27.852Z,13.93
2019-02-11T03:57:56.435Z,11.47
2019-02-11T04:00:24.973Z,12.43
2019-02-11T04:02:53.420Z,13.33
2019-02-11T04:05:21.907Z,13.77
2019-02-11T04:07:50.365Z,12.87
2019-02-11T04:10:18.789Z,12.33
2019-02-11T04:12:47.221Z,12.23
2019-02-11T04:15:15.630Z,13.83
2019-02-11T04:17:44.044Z,15.33
2019-02-11T04:20:14.112Z,16.77
2019-02-11T04:22:42.581Z,15.93
2019-02-11T04:25:11.113Z,12.70
2019-02-11T04:27:39.530Z,8.03
2019-02-11T04:30:09.820Z,10.87
2019-02-11T04:32:38.235Z,15.60
2019-02-11T04:35:06.963Z,13.50
2019-02-11T04:37:35.389Z,13.37
2019-02-11T04:40:05.919Z,13.60
2019-02-11T04:42:37.513Z,10.63
2019-02-11T04:45:08.166Z,10.67
2019-02-11T04:47:36.590Z,10.57
2019-02-11T04:50:07.831Z,15.67
2019-02-11T04:52:36.334Z,19.00
2019-02-11T04:55:06.918Z,19.57
2019-02-11T04:57:35.357Z,12.67
2019-02-11T05:00:10.609Z,12.40
2019-02-11T05:02:39.090Z,12.27
2019-02-11T05:05:09.071Z,12.10
2019-02-11T05:07:37.640Z,12.43
2019-02-11T05:10:11.614Z,11.83
2019-02-11T05:12:40.032Z,11.27
2019-02-11T05:15:10.395Z,10.97
2019-02-11T05:17:38.927Z,11.27
2019-02-11T05:20:09.713Z,10.30
2019-02-11T05:22:38.136Z,15.97
2019-02-11T05:25:07.995Z,12.20
2019-02-11T05:27:36.438Z,13.63
2019-02-11T05:30:07.421Z,12.53
2019-02-11T05:32:36.001Z,10.83
2019-02-11T05:35:06.050Z,11.67
2019-02-11T05:37:34.626Z,11.53
2019-02-11T05:40:03.607Z,10.70
2019-02-11T05:42:32.040Z,13.83
2019-02-11T05:45:00.460Z,12.53
2019-02-11T05:47:28.932Z,15.53
2019-02-11T05:49:57.366Z,14.50
2019-02-11T05:52:25.887Z,10.13
2019-02-11T05:54:54.368Z,12.40
2019-02-11T05:57:22.857Z,14.67
2019-02-11T05:59:51.275Z,14.10
2019-02-11T06:02:21.366Z,16.53
2019-02-11T06:04:49.856Z,11.10
2019-02-11T06:07:18.315Z,8.97
2019-02-11T06:09:46.803Z,14.13
2019-02-11T06:12:15.305Z,17.47
2019-02-11T06:14:43.721Z,15.13
2019-02-11T06:17:12.289Z,10.47
2019-02-11T06:19:40.744Z,10.73
2019-02-11T06:22:09.158Z,13.87
2019-02-11T06:24:37.687Z,12.60
2019-02-11T06:27:06.139Z,9.27
2019-02-11T06:29:34.684Z,12.73
2019-02-11T06:32:03.103Z,18.60
2019-02-11T06:34:31.561Z,14.83
2019-02-11T06:37:00.081Z,12.60
2019-02-11T06:39:28.644Z,13.37
2019-02-11T06:41:57.070Z,12.17
2019-02-11T06:44:25.509Z,13.07
2019-02-11T06:46:53.914Z,12.43
2019-02-11T06:49:22.371Z,13.23
2019-02-11T06:51:50.816Z,17.23
2019-02-11T06:54:19.269Z,14.30
2019-02-11T06:56:47.679Z,13.23
2019-02-11T06:59:16.123Z,13.47
2019-02-11T07:01:44.536Z,15.13
2019-02-11T07:04:12.993Z,15.10
2019-02-11T07:06:41.429Z,13.53
2019-02-11T07:09:09.883Z,15.27
2019-02-11T07:11:38.326Z,13.67
2019-02-11T07:14:06.743Z,11.77
2019-02-11T07:16:35.179Z,10.53
2019-02-11T07:19:03.766Z,16.40
2019-02-11T07:21:32.158Z,11.97
2019-02-11T07:24:00.576Z,13.93
2019-02-11T07:26:29.022Z,13.53
2019-02-11T07:28:57.540Z,14.40
2019-02-11T07:31:25.988Z,14.10
2019-02-11T07:33:54.405Z,13.50
2019-02-11T07:36:24.323Z,12.03
2019-02-11T07:38:52.659Z,15.20
2019-02-11T07:41:22.744Z,11.73
2019-02-11T07:43:55.834Z,17.97
2019-02-11T07:46:25.936Z,15.13
2019-02-11T07:48:54.360Z,12.97
2019-02-11T07:51:22.816Z,11.50
2019-02-11T07:53:51.218Z,16.67
2019-02-11T07:56:19.675Z,17.43
2019-02-11T07:58:48.109Z,11.87
2019-02-11T08:01:16.577Z,12.43
2019-02-11T08:03:44.988Z,12.83
2019-02-11T08:06:13.440Z,14.40
2019-02-11T08:08:42.822Z,17.93
2019-02-11T08:11:12.498Z,11.77
2019-02-11T08:13:41.290Z,16.90
2019-02-11T08:16:09.832Z,14.43
2019-02-11T08:18:38.320Z,14.53
2019-02-11T08:21:06.875Z,20.50
2019-02-11T08:23:35.346Z,14.47
2019-02-11T08:26:03.837Z,19.77
2019-02-11T08:28:32.262Z,9.23
2019-02-11T08:31:00.663Z,10.90
2019-02-11T08:33:30.465Z,11.10
2019-02-11T08:35:59.109Z,11.07
2019-02-11T08:38:27.543Z,18.30
2019-02-11T08:40:55.952Z,17.10
2019-02-11T08:43:24.406Z,19.97
2019-02-11T08:45:52.819Z,16.97
2019-02-11T08:48:21.269Z,12.27
2019-02-11T08:50:49.735Z,12.93
2019-02-11T08:53:18.235Z,14.33
2019-02-11T08:55:46.636Z,15.13
2019-02-11T08:58:15.167Z,14.13
2019-02-11T09:00:43.668Z,17.57
2019-02-11T09:03:12.261Z,12.93
2019-02-11T09:05:40.859Z,12.97
2019-02-11T09:08:09.437Z,12.57
2019-02-11T09:10:37.879Z,11.93
2019-02-11T09:13:06.358Z,17.37
2019-02-11T09:15:35.060Z,16.33
2019-02-11T09:18:03.767Z,12.93
2019-02-11T09:20:32.217Z,14.93
2019-02-11T09:23:00.632Z,18.97
2019-02-11T09:25:29.100Z,14.07
2019-02-11T09:27:57.537Z,12.03
2019-02-11T09:30:25.995Z,18.33
2019-02-11T09:32:54.388Z,17.00
2019-02-11T09:35:22.916Z,14.27
2019-02-11T09:37:51.331Z,14.70
2019-02-11T09:40:19.774Z,11.00
2019-02-11T09:42:48.191Z,10.57
2019-02-11T09:45:22.558Z,11.77
2019-02-11T09:47:51.193Z,15.67
2019-02-11T09:50:22.525Z,10.67
2019-02-11T09:52:50.993Z,11.13
2019-02-11T09:55:22.314Z,11.70
2019-02-11T09:57:50.789Z,11.60
2019-02-11T10:00:19.309Z,16.20
2019-02-11T10:02:47.809Z,12.33
2019-02-11T10:05:16.370Z,13.60
2019-02-11T10:07:44.899Z,9.77
2019-02-11T10:10:13.890Z,14.40
2019-02-11T10:12:42.464Z,13.00
2019-02-11T10:15:13.466Z,13.47
2019-02-11T10:17:41.995Z,12.73
2019-02-11T10:20:14.946Z,12.73
2019-02-11T10:22:43.456Z,8.40
2019-02-11T10:25:14.724Z,12.13
2019-02-11T10:27:43.191Z,11.00
2019-02-11T10:30:13.753Z,12.57
2019-02-11T10:32:42.307Z,9.73
2019-02-11T10:35:12.403Z,16.27
2019-02-11T10:37:40.930Z,11.57
2019-02-11T10:40:11.472Z,8.47
2019-02-11T10:42:39.981Z,11.33
2019-02-11T10:45:10.868Z,14.80
2019-02-11T10:47:40.262Z,10.87
2019-02-11T10:50:11.641Z,18.47
2019-02-11T10:52:40.095Z,9.63
2019-02-11T10:55:11.137Z,10.57
2019-02-11T10:57:39.715Z,8.93
2019-02-11T11:00:15.592Z,7.33
2019-02-11T11:02:44.071Z,14.00
2019-02-11T11:05:13.434Z,11.47
2019-02-11T11:07:41.945Z,14.40
2019-02-11T11:10:13.545Z,15.07
2019-02-11T11:12:42.064Z,11.17
2019-02-11T11:15:10.965Z,12.67
2019-02-11T11:17:39.581Z,10.87
2019-02-11T11:20:11.106Z,9.63
2019-02-11T11:22:39.625Z,9.30
2019-02-11T11:25:09.330Z,16.90
2019-02-11T11:27:37.757Z,6.27
2019-02-11T11:30:09.582Z,13.53
2019-02-11T11:32:38.939Z,9.83
2019-02-11T11:35:09.388Z,7.17
2019-02-11T11:37:37.967Z,10.63
2019-02-11T11:40:15.476Z,10.90
2019-02-11T11:42:44.068Z,9.90
2019-02-11T11:45:17.792Z,8.20
2019-02-11T11:47:46.889Z,13.73
2019-02-11T11:50:16.263Z,11.97
2019-02-11T11:52:44.846Z,11.33
2019-02-11T11:55:16.159Z,9.37
2019-02-11T11:57:44.653Z,8.97
2019-02-11T12:00:24.846Z,13.27
2019-02-11T12:03:01.906Z,13.50
2019-02-11T12:05:23.885Z,9.93
2019-02-11T12:07:52.487Z,12.13
2019-02-11T12:10:21.128Z,11.47
2019-02-11T12:12:49.619Z,12.03
2019-02-11T12:15:22.740Z,9.53
2019-02-11T12:17:51.538Z,10.30
2019-02-11T12:20:20.076Z,15.20
2019-02-11T12:22:48.658Z,10.63
2019-02-11T12:25:18.492Z,11.40
2019-02-11T12:27:47.038Z,14.07
2019-02-11T12:30:24.235Z,12.10
2019-02-11T12:32:54.958Z,10.03
2019-02-11T12:35:23.857Z,10.87
2019-02-11T12:37:53.249Z,9.23
2019-02-11T12:40:22.595Z,9.43
2019-02-11T12:42:53.224Z,6.83
2019-02-11T12:45:25.292Z,10.20
2019-02-11T12:47:54.219Z,5.73
2019-02-11T12:50:22.995Z,7.63
2019-02-11T12:52:51.793Z,4.90
2019-02-11T12:55:20.589Z,7.97
2019-02-11T12:57:49.320Z,5.83
2019-02-11T13:00:24.591Z,7.13
2019-02-11T13:03:00.341Z,5.00
2019-02-11T13:05:44.380Z,5.57
2019-02-11T13:07:59.350Z,6.37
2019-02-11T13:10:27.963Z,4.20
2019-02-11T13:12:56.402Z,6.73
2019-02-11T13:15:57.516Z,5.83
2019-02-11T13:17:55.282Z,12.40
2019-02-11T13:20:23.735Z,8.60
2019-02-11T13:22:52.241Z,8.80
2019-02-11T13:25:20.748Z,8.80
2019-02-11T13:27:49.282Z,7.80
2019-02-11T13:30:20.348Z,8.90
2019-02-11T13:32:48.923Z,5.27
2019-02-11T13:35:17.714Z,6.83
2019-02-11T13:37:46.195Z,10.50
2019-02-11T13:40:14.862Z,8.50
2019-02-11T13:42:43.480Z,11.57
2019-02-11T13:45:17.726Z,8.47
2019-02-11T13:47:55.361Z,7.67
2019-02-11T13:50:19.612Z,9.67
2019-02-11T13:52:48.409Z,11.23
2019-02-11T13:55:17.000Z,9.67
2019-02-11T13:57:45.487Z,9.40
2019-02-11T14:00:18.328Z,6.70
2019-02-11T14:02:55.171Z,13.70
2019-02-11T14:05:24.277Z,9.80
2019-02-11T14:07:52.875Z,11.23
2019-02-11T14:10:21.467Z,11.13
2019-02-11T14:12:50.559Z,11.10
2019-02-11T14:15:20.952Z,7.23
2019-02-11T14:17:49.327Z,8.23
2019-02-11T14:20:22.911Z,11.13
2019-02-11T14:22:51.443Z,8.30
2019-02-11T14:25:39.302Z,8.70
2019-02-11T14:27:50.748Z,6.53
2019-02-11T14:30:23.010Z,7.90
2019-02-11T14:32:51.631Z,5.23
2019-02-11T14:35:20.987Z,13.50
2019-02-11T14:37:49.466Z,5.97
2019-02-11T14:40:18.016Z,6.83
2019-02-11T14:42:46.567Z,6.37
2019-02-11T14:45:17.449Z,8.00
2019-02-11T14:47:45.888Z,18.23
2019-02-11T14:50:14.411Z,10.67
2019-02-11T14:52:42.916Z,12.10
2019-02-11T14:55:11.968Z,11.10
2019-02-11T14:57:40.524Z,15.10
2019-02-11T15:00:21.136Z,9.67
2019-02-11T15:02:49.948Z,10.63
2019-02-11T15:05:19.119Z,14.17
2019-02-11T15:07:47.830Z,11.03
2019-02-11T15:10:16.703Z,25.17
2019-02-11T15:12:45.216Z,13.07
2019-02-11T15:15:14.298Z,13.13
2019-02-11T15:17:44.969Z,17.97
2019-02-11T15:20:15.237Z,9.60
2019-02-11T15:22:43.863Z,8.23
2019-02-11T15:25:17.857Z,12.57
2019-02-11T15:27:46.438Z,16.23
2019-02-11T15:30:16.903Z,12.93
2019-02-11T15:32:45.355Z,13.67
2019-02-11T15:35:14.035Z,12.27
2019-02-11T15:37:42.500Z,13.53
2019-02-11T15:40:16.674Z,14.40
2019-02-11T15:42:45.201Z,10.70
2019-02-11T15:45:14.775Z,10.90
2019-02-11T15:47:43.286Z,12.60
2019-02-11T15:50:13.638Z,13.47
2019-02-11T15:52:42.151Z,13.83
2019-02-11T15:55:15.711Z,10.23
2019-02-11T15:57:44.361Z,15.50
2019-02-11T16:00:15.331Z,11.80
2019-02-11T16:02:43.903Z,11.87
2019-02-11T16:05:16.530Z,9.70
2019-02-11T16:07:42.856Z,15.27
2019-02-11T16:10:14.108Z,16.70
2019-02-11T16:12:42.677Z,11.80
2019-02-11T16:15:12.440Z,14.57
2019-02-11T16:17:40.987Z,14.83
2019-02-11T16:20:14.386Z,18.33
2019-02-11T16:22:42.845Z,12.23
2019-02-11T16:25:13.220Z,13.53
2019-02-11T16:27:41.782Z,9.97
2019-02-11T16:30:19.865Z,11.87
2019-02-11T16:32:48.436Z,14.40
2019-02-11T16:35:17.938Z,14.67
2019-02-11T16:37:46.819Z,13.67
2019-02-11T16:40:18.176Z,12.53
2019-02-11T16:42:46.798Z,13.53
2019-02-11T16:45:15.388Z,12.13
2019-02-11T16:47:43.916Z,16.80
2019-02-11T16:50:12.945Z,15.73
2019-02-11T16:52:41.561Z,19.10
2019-02-11T16:55:11.337Z,13.13
2019-02-11T16:57:39.803Z,19.30
2019-02-11T17:00:14.266Z,11.10
2019-02-11T17:02:42.958Z,13.23
2019-02-11T17:05:12.038Z,11.23
2019-02-11T17:07:42.205Z,12.80
2019-02-11T17:10:14.838Z,11.37
2019-02-11T17:12:43.533Z,11.33
2019-02-11T17:15:14.661Z,9.40
2019-02-11T17:17:43.233Z,12.20
2019-02-11T17:20:13.724Z,11.73
2019-02-11T17:22:42.426Z,11.30
2019-02-11T17:25:11.585Z,11.53
2019-02-11T17:27:40.053Z,12.80
2019-02-11T17:30:17.406Z,10.67
2019-02-11T17:32:45.974Z,11.43
2019-02-11T17:35:14.532Z,9.77
2019-02-11T17:37:43.154Z,11.50
2019-02-11T17:40:14.845Z,10.60
2019-02-11T17:42:43.552Z,14.33
2019-02-11T17:45:19.736Z,6.87
2019-02-11T17:47:48.317Z,27.10
2019-02-11T17:50:16.826Z,23.27
2019-02-11T17:52:45.275Z,24.97
2019-02-11T17:55:14.768Z,29.77
2019-02-11T17:57:47.581Z,15.33
2019-02-11T18:00:26.228Z,22.77
2019-02-11T18:02:54.785Z,17.60
2019-02-11T18:05:23.254Z,17.40
2019-02-11T18:07:52.256Z,11.87
2019-02-11T18:10:20.696Z,11.77
2019-02-11T18:12:49.166Z,14.13
2019-02-11T18:15:17.616Z,10.57
2019-02-11T18:17:46.072Z,9.70
2019-02-11T18:20:14.556Z,10.10
2019-02-11T18:22:43.054Z,9.17
2019-02-11T18:25:11.705Z,12.20
2019-02-11T18:27:40.189Z,10.70
2019-02-11T18:30:14.394Z,12.00
2019-02-11T18:32:42.910Z,13.63
2019-02-11T18:35:19.456Z,15.27
2019-02-11T18:37:48.026Z,14.23
2019-02-11T18:40:16.930Z,14.03
2019-02-11T18:42:45.419Z,12.07
2019-02-11T18:45:16.178Z,8.87
2019-02-11T18:47:44.704Z,11.67
2019-02-11T18:50:16.604Z,11.70
2019-02-11T18:52:45.094Z,9.47
2019-02-11T18:55:16.089Z,10.93
2019-02-11T18:57:45.240Z,15.13
2019-02-11T19:00:17.432Z,12.67
2019-02-11T19:02:45.976Z,8.57
2019-02-11T19:05:15.972Z,13.93
2019-02-11T19:07:44.486Z,16.53
2019-02-11T19:10:15.295Z,9.70
2019-02-11T19:12:43.890Z,11.20
2019-02-11T19:15:16.841Z,8.27
2019-02-11T19:17:45.493Z,16.27
2019-02-11T19:20:17.832Z,8.80
2019-02-11T19:22:46.316Z,9.47
2019-02-11T19:25:14.969Z,7.93
2019-02-11T19:27:43.603Z,11.97
2019-02-11T19:30:14.988Z,10.13
2019-02-11T19:32:43.599Z,13.30
2019-02-11T19:35:12.300Z,11.70
2019-02-11T19:37:40.795Z,13.83
2019-02-11T19:40:14.906Z,11.77
2019-02-11T19:42:43.669Z,10.10
2019-02-11T19:45:20.298Z,12.17
2019-02-11T19:47:49.029Z,10.97
2019-02-11T19:50:18.192Z,13.30
2019-02-11T19:52:46.921Z,11.73
2019-02-11T19:55:16.577Z,12.60
2019-02-11T19:57:45.165Z,8.50
2019-02-11T20:00:17.000Z,11.90
2019-02-11T20:02:45.610Z,12.53
2019-02-11T20:05:14.389Z,14.03
2019-02-11T20:07:43.832Z,14.33
2019-02-11T20:10:14.385Z,13.30
2019-02-11T20:12:42.939Z,11.83
2019-02-11T20:15:13.789Z,14.40
2019-02-11T20:17:42.499Z,20.43
2019-02-11T20:20:13.641Z,12.37
2019-02-11T20:22:42.231Z,15.87
2019-02-11T20:25:12.798Z,13.47
2019-02-11T20:27:42.039Z,11.60
2019-02-11T20:30:13.761Z,14.07
2019-02-11T20:32:42.203Z,13.30
2019-02-11T20:35:10.731Z,13.47
2019-02-11T20:37:39.165Z,14.07
2019-02-11T20:40:10.837Z,13.07
2019-02-11T20:42:39.330Z,18.23
2019-02-11T20:45:11.142Z,16.73
2019-02-11T20:47:39.642Z,15.77
2019-02-11T20:50:11.886Z,11.93
2019-02-11T20:52:39.086Z,16.33
2019-02-11T20:55:10.677Z,16.53
2019-02-11T20:57:39.212Z,16.27
2019-02-11T21:00:13.792Z,13.10
2019-02-11T21:02:42.289Z,13.23
2019-02-11T21:05:11.001Z,19.77
2019-02-11T21:07:39.597Z,15.17
2019-02-11T21:10:13.518Z,12.07
2019-02-11T21:12:42.015Z,15.07
2019-02-11T21:15:13.019Z,16.43
2019-02-11T21:17:41.440Z,14.57
2019-02-11T21:20:28.041Z,20.07
2019-02-11T21:22:56.537Z,11.87
2019-02-11T21:25:29.176Z,12.83
2019-02-11T21:27:57.692Z,15.13
2019-02-11T21:30:26.324Z,16.70
2019-02-11T21:32:54.772Z,13.27
2019-02-11T21:35:23.231Z,16.40
2019-02-11T21:37:51.750Z,14.07
2019-02-11T21:40:20.248Z,15.87
2019-02-11T21:42:48.811Z,15.13
2019-02-11T21:45:17.352Z,13.67
2019-02-11T21:47:45.866Z,15.77
2019-02-11T21:50:26.417Z,12.40
2019-02-11T21:52:48.982Z,14.03
2019-02-11T21:55:19.829Z,12.33
2019-02-11T21:57:48.368Z,12.13
2019-02-11T22:00:19.527Z,13.43
2019-02-11T22:02:48.954Z,12.10
2019-02-11T22:05:17.573Z,13.80
2019-02-11T22:07:46.119Z,16.97
2019-02-11T22:10:17.115Z,11.83
2019-02-11T22:12:45.675Z,14.70
2019-02-11T22:15:15.035Z,17.90
2019-02-11T22:17:43.583Z,14.53
2019-02-11T22:20:14.374Z,13.30
2019-02-11T22:22:42.960Z,20.43
2019-02-11T22:25:13.497Z,15.90
2019-02-11T22:27:42.068Z,20.73
2019-02-11T22:30:18.611Z,17.77
2019-02-11T22:32:47.207Z,11.27
2019-02-11T22:35:15.766Z,18.33
2019-02-11T22:37:44.335Z,20.60
2019-02-11T22:40:14.394Z,16.57
2019-02-11T22:42:42.895Z,13.80
2019-02-11T22:45:22.495Z,14.43
2019-02-11T22:47:51.028Z,13.47
2019-02-11T22:50:19.571Z,18.20
2019-02-11T22:52:48.170Z,13.83
2019-02-11T22:55:16.753Z,15.20
2019-02-11T22:57:45.253Z,17.13
2019-02-11T23:00:30.609Z,19.40
2019-02-11T23:02:59.137Z,11.13
2019-02-11T23:05:27.569Z,15.07
2019-02-11T23:07:55.983Z,21.37
2019-02-11T23:10:24.442Z,14.13
2019-02-11T23:12:52.867Z,13.23
2019-02-11T23:15:21.446Z,16.83
2019-02-11T23:17:49.960Z,21.47
2019-02-11T23:20:18.403Z,16.27
2019-02-11T23:22:46.952Z,15.93
2019-02-11T23:25:15.448Z,18.93
2019-02-11T23:27:43.843Z,15.63
2019-02-11T23:30:13.796Z,17.40
2019-02-11T23:32:43.888Z,21.27
2019-02-11T23:35:12.455Z,17.73
2019-02-11T23:37:40.943Z,14.93
2019-02-11T23:40:10.440Z,13.97
2019-02-11T23:42:39.000Z,16.07
2019-02-11T23:45:10.074Z,14.80
2019-02-11T23:47:38.540Z,17.23
2019-02-11T23:50:11.286Z,14.50
2019-02-11T23:52:39.686Z,14.30
2019-02-11T23:55:09.551Z,18.60
2019-02-11T23:57:38.061Z,19.97
